sensor_id;sensor_type;location;lat;lon;timestamp;pressure;altitude;pressure_sealevel;temperature;humidity
50380;BME280;37474;59.468;18.040;2024-02-26T00:00:19;100794.00;;;-1.91;100.00
50380;BME280;37474;59.468;18.040;2024-02-26T00:02:48;100783.00;;;-1.80;100.00
50380;BME280;37474;59.468;18.040;2024-02-26T00:05:15;100792.31;;;-1.52;100.00
50380;BME280;37474;59.468;18.040;2024-02-26T00:07:43;100789.75;;;-1.37;100.00
50380;BME280;37474;59.468;18.040;2024-02-26T00:10:13;100795.66;;;-1.28;100.00
50380;BME280;37474;59.468;18.040;2024-02-26T00:12:41;100802.44;;;-1.20;100.00
50380;BME280;37474;59.468;18.040;2024-02-26T00:15:10;100804.94;;;-1.17;100.00
50380;BME280;37474;59.468;18.040;2024-02-26T00:17:40;100805.81;;;-1.16;100.00
50380;BME280;37474;59.468;18.040;2024-02-26T00:20:10;100800.72;;;-1.19;100.00
50380;BME280;37474;59.468;18.040;2024-02-26T00:22:42;100815.97;;;-1.09;100.00
50380;BME280;37474;59.468;18.040;2024-02-26T00:25:11;100821.09;;;-1.19;100.00
50380;BME280;37474;59.468;18.040;2024-02-26T00:27:40;100822.78;;;-1.11;100.00
50380;BME280;37474;59.468;18.040;2024-02-26T00:30:11;100813.47;;;-1.16;100.00
50380;BME280;37474;59.468;18.040;2024-02-26T00:32:40;100814.28;;;-1.14;100.00
50380;BME280;37474;59.468;18.040;2024-02-26T00:35:12;100816.84;;;-1.20;100.00
50380;BME280;37474;59.468;18.040;2024-02-26T00:37:41;100800.72;;;-1.24;100.00
50380;BME280;37474;59.468;18.040;2024-02-26T00:40:10;100807.56;;;-1.37;100.00
50380;BME280;37474;59.468;18.040;2024-02-26T00:42:38;100807.53;;;-1.21;100.00
50380;BME280;37474;59.468;18.040;2024-02-26T00:45:12;100806.66;;;-1.23;100.00
50380;BME280;37474;59.468;18.040;2024-02-26T00:47:42;100807.53;;;-1.21;100.00
50380;BME280;37474;59.468;18.040;2024-02-26T00:50:11;100812.56;;;-1.12;100.00
50380;BME280;37474;59.468;18.040;2024-02-26T00:52:40;100817.66;;;-1.17;100.00
50380;BME280;37474;59.468;18.040;2024-02-26T00:55:08;100810.06;;;-1.15;100.00
50380;BME280;37474;59.468;18.040;2024-02-26T00:57:36;100804.97;;;-1.14;100.00
50380;BME280;37474;59.468;18.040;2024-02-26T01:00:05;100804.09;;;-1.13;100.00
50380;BME280;37474;59.468;18.040;2024-02-26T01:02:35;100810.03;;;-1.08;100.00
50380;BME280;37474;59.468;18.040;2024-02-26T01:05:06;100810.84;;;-0.96;100.00
50380;BME280;37474;59.468;18.040;2024-02-26T01:07:36;100797.31;;;-1.08;100.00
50380;BME280;37474;59.468;18.040;2024-02-26T01:10:05;100810.88;;;-1.07;100.00
50380;BME280;37474;59.468;18.040;2024-02-26T01:12:33;100806.63;;;-1.08;100.00
50380;BME280;37474;59.468;18.040;2024-02-26T01:15:01;100810.03;;;-1.17;100.00
50380;BME280;37474;59.468;18.040;2024-02-26T01:17:30;100812.59;;;-1.15;100.00
50380;BME280;37474;59.468;18.040;2024-02-26T01:19:58;100818.53;;;-1.09;100.00
50380;BME280;37474;59.468;18.040;2024-02-26T01:22:28;100826.97;;;-1.11;100.00
50380;BME280;37474;59.468;18.040;2024-02-26T01:24:56;100830.38;;;-1.04;100.00
50380;BME280;37474;59.468;18.040;2024-02-26T01:27:25;100822.78;;;-1.15;100.00
50380;BME280;37474;59.468;18.040;2024-02-26T01:29:56;100820.22;;;-1.11;100.00
50380;BME280;37474;59.468;18.040;2024-02-26T01:32:24;100821.91;;;-1.05;100.00
50380;BME280;37474;59.468;18.040;2024-02-26T01:34:52;100827.81;;;-0.95;100.00
50380;BME280;37474;59.468;18.040;2024-02-26T01:37:20;100833.78;;;-0.99;100.00
50380;BME280;37474;59.468;18.040;2024-02-26T01:39:49;100822.72;;;-0.97;100.00
50380;BME280;37474;59.468;18.040;2024-02-26T01:42:17;100834.56;;;-0.90;100.00
50380;BME280;37474;59.468;18.040;2024-02-26T01:44:46;100829.50;;;-0.88;100.00
50380;BME280;37474;59.468;18.040;2024-02-26T01:47:14;100825.25;;;-0.92;100.00
50380;BME280;37474;59.468;18.040;2024-02-26T01:49:42;100830.31;;;-0.77;100.00
50380;BME280;37474;59.468;18.040;2024-02-26T01:52:11;100818.44;;;-0.76;100.00
50380;BME280;37474;59.468;18.040;2024-02-26T01:54:40;100820.91;;;-0.64;100.00
50380;BME280;37474;59.468;18.040;2024-02-26T01:57:10;100802.22;;;-0.62;100.00
50380;BME280;37474;59.468;18.040;2024-02-26T01:59:39;100803.94;;;-0.62;100.00
50380;BME280;37474;59.468;18.040;2024-02-26T02:02:10;100792.06;;;-0.63;100.00
50380;BME280;37474;59.468;18.040;2024-02-26T02:04:39;100786.13;;;-0.61;100.00
50380;BME280;37474;59.468;18.040;2024-02-26T02:07:08;100786.91;;;-0.49;100.00
50380;BME280;37474;59.468;18.040;2024-02-26T02:09:35;100793.66;;;-0.47;100.00
50380;BME280;37474;59.468;18.040;2024-02-26T02:12:03;100793.69;;;-0.48;100.00
50380;BME280;37474;59.468;18.040;2024-02-26T02:14:33;100781.69;;;-0.34;100.00
50380;BME280;37474;59.468;18.040;2024-02-26T02:17:01;100785.88;;;-0.21;100.00
50380;BME280;37474;59.468;18.040;2024-02-26T02:19:29;100784.13;;;-0.13;100.00
50380;BME280;37474;59.468;18.040;2024-02-26T02:21:59;100778.13;;;-0.07;100.00
50380;BME280;37474;59.468;18.040;2024-02-26T02:24:27;100772.19;;;-0.05;100.00
50380;BME280;37474;59.468;18.040;2024-02-26T02:26:55;100757.84;;;-0.16;100.00
50380;BME280;37474;59.468;18.040;2024-02-26T02:29:25;100762.94;;;-0.16;100.00
50380;BME280;37474;59.468;18.040;2024-02-26T02:31:54;100768.88;;;-0.19;100.00
50380;BME280;37474;59.468;18.040;2024-02-26T02:34:23;100777.34;;;-0.17;100.00
50380;BME280;37474;59.468;18.040;2024-02-26T02:36:52;100780.00;;;-0.31;100.00
50380;BME280;37474;59.468;18.040;2024-02-26T02:39:22;100768.06;;;-0.25;100.00
50380;BME280;37474;59.468;18.040;2024-02-26T02:41:50;100767.25;;;-0.31;100.00
50380;BME280;37474;59.468;18.040;2024-02-26T02:44:18;100772.38;;;-0.35;100.00
50380;BME280;37474;59.468;18.040;2024-02-26T02:46:49;100763.81;;;-0.25;100.00
50380;BME280;37474;59.468;18.040;2024-02-26T02:49:19;100767.22;;;-0.24;100.00
50380;BME280;37474;59.468;18.040;2024-02-26T02:51:50;100756.28;;;-0.39;100.00
50380;BME280;37474;59.468;18.040;2024-02-26T02:54:21;100766.44;;;-0.36;100.00
50380;BME280;37474;59.468;18.040;2024-02-26T02:56:49;100763.09;;;-0.44;100.00
50380;BME280;37474;59.468;18.040;2024-02-26T02:59:18;100758.81;;;-0.37;100.00
50380;BME280;37474;59.468;18.040;2024-02-26T03:01:45;100756.28;;;-0.42;100.00
50380;BME280;37474;59.468;18.040;2024-02-26T03:04:14;100772.44;;;-0.43;100.00
50380;BME280;37474;59.468;18.040;2024-02-26T03:06:42;100760.56;;;-0.47;100.00
50380;BME280;37474;59.468;18.040;2024-02-26T03:09:10;100771.63;;;-0.48;100.00
50380;BME280;37474;59.468;18.040;2024-02-26T03:11:40;100763.94;;;-0.45;100.00
50380;BME280;37474;59.468;18.040;2024-02-26T03:14:08;100763.06;;;-0.38;100.00
50380;BME280;37474;59.468;18.040;2024-02-26T03:16:36;100768.16;;;-0.38;100.00
50380;BME280;37474;59.468;18.040;2024-02-26T03:19:05;100763.06;;;-0.39;100.00
50380;BME280;37474;59.468;18.040;2024-02-26T03:21:33;100768.94;;;-0.27;100.00
50380;BME280;37474;59.468;18.040;2024-02-26T03:24:01;100769.75;;;-0.23;100.00
50380;BME280;37474;59.468;18.040;2024-02-26T03:26:29;100769.00;;;-0.36;100.00
50380;BME280;37474;59.468;18.040;2024-02-26T03:28:59;100773.22;;;-0.35;100.00
50380;BME280;37474;59.468;18.040;2024-02-26T03:31:29;100786.81;;;-0.36;100.00
50380;BME280;37474;59.468;18.040;2024-02-26T03:33:57;100779.22;;;-0.45;100.00
50380;BME280;37474;59.468;18.040;2024-02-26T03:36:25;100773.25;;;-0.38;100.00
50380;BME280;37474;59.468;18.040;2024-02-26T03:38:52;100780.03;;;-0.35;100.00
50380;BME280;37474;59.468;18.040;2024-02-26T03:41:20;100773.22;;;-0.32;100.00
50380;BME280;37474;59.468;18.040;2024-02-26T03:43:48;100773.22;;;-0.35;100.00
50380;BME280;37474;59.468;18.040;2024-02-26T03:46:18;100777.44;;;-0.28;100.00
50380;BME280;37474;59.468;18.040;2024-02-26T03:48:46;100770.72;;;-0.41;100.00
50380;BME280;37474;59.468;18.040;2024-02-26T03:51:14;100784.31;;;-0.42;100.00
50380;BME280;37474;59.468;18.040;2024-02-26T03:53:42;100776.66;;;-0.42;100.00
50380;BME280;37474;59.468;18.040;2024-02-26T03:56:11;100775.72;;;-0.29;100.00
50380;BME280;37474;59.468;18.040;2024-02-26T03:58:40;100770.66;;;-0.30;100.00
50380;BME280;37474;59.468;18.040;2024-02-26T04:01:08;100772.31;;;-0.26;100.00
50380;BME280;37474;59.468;18.040;2024-02-26T04:03:38;100775.75;;;-0.30;100.00
50380;BME280;37474;59.468;18.040;2024-02-26T04:06:08;100770.69;;;-0.36;100.00
50380;BME280;37474;59.468;18.040;2024-02-26T04:08:36;100768.97;;;-0.33;100.00
50380;BME280;37474;59.468;18.040;2024-02-26T04:11:05;100763.88;;;-0.34;100.00
50380;BME280;37474;59.468;18.040;2024-02-26T04:13:36;100767.28;;;-0.35;100.00
50380;BME280;37474;59.468;18.040;2024-02-26T04:16:05;100765.47;;;-0.19;100.00
50380;BME280;37474;59.468;18.040;2024-02-26T04:18:33;100769.03;;;-0.39;100.00
50380;BME280;37474;59.468;18.040;2024-02-26T04:21:04;100769.81;;;-0.31;100.00
50380;BME280;37474;59.468;18.040;2024-02-26T04:23:34;100781.75;;;-0.37;100.00
50380;BME280;37474;59.468;18.040;2024-02-26T04:26:03;100782.53;;;-0.34;100.00
50380;BME280;37474;59.468;18.040;2024-02-26T04:28:31;100784.22;;;-0.30;100.00
50380;BME280;37474;59.468;18.040;2024-02-26T04:30:59;100791.06;;;-0.35;100.00
50380;BME280;37474;59.468;18.040;2024-02-26T04:33:27;100780.13;;;-0.52;100.00
50380;BME280;37474;59.468;18.040;2024-02-26T04:35:55;100786.00;;;-0.45;100.00
50380;BME280;37474;59.468;18.040;2024-02-26T04:38:25;100781.75;;;-0.42;100.00
50380;BME280;37474;59.468;18.040;2024-02-26T04:40:53;100788.56;;;-0.45;100.00
50380;BME280;37474;59.468;18.040;2024-02-26T04:43:21;100795.28;;;-0.31;100.00
50380;BME280;37474;59.468;18.040;2024-02-26T04:45:49;100788.47;;;-0.30;100.00
50380;BME280;37474;59.468;18.040;2024-02-26T04:48:17;100786.81;;;-0.33;100.00
50380;BME280;37474;59.468;18.040;2024-02-26T04:50:45;100779.19;;;-0.36;100.00
50380;BME280;37474;59.468;18.040;2024-02-26T04:53:14;100792.78;;;-0.38;100.00
50380;BME280;37474;59.468;18.040;2024-02-26T04:55:43;100791.94;;;-0.39;100.00
50380;BME280;37474;59.468;18.040;2024-02-26T04:58:11;100789.38;;;-0.37;100.00
50380;BME280;37474;59.468;18.040;2024-02-26T05:00:39;100778.31;;;-0.32;100.00
50380;BME280;37474;59.468;18.040;2024-02-26T05:03:08;100796.97;;;-0.31;100.00
50380;BME280;37474;59.468;18.040;2024-02-26T05:05:39;100792.75;;;-0.35;100.00
50380;BME280;37474;59.468;18.040;2024-02-26T05:08:08;100787.72;;;-0.47;100.00
50380;BME280;37474;59.468;18.040;2024-02-26T05:10:37;100797.03;;;-0.42;100.00
50380;BME280;37474;59.468;18.040;2024-02-26T05:13:09;100792.84;;;-0.49;100.00
50380;BME280;37474;59.468;18.040;2024-02-26T05:15:37;100797.03;;;-0.45;100.00
50380;BME280;37474;59.468;18.040;2024-02-26T05:18:05;100791.13;;;-0.47;100.00
50380;BME280;37474;59.468;18.040;2024-02-26T05:20:34;100793.69;;;-0.50;100.00
50380;BME280;37474;59.468;18.040;2024-02-26T05:23:05;100801.28;;;-0.45;100.00
50380;BME280;37474;59.468;18.040;2024-02-26T05:25:33;100796.25;;;-0.50;100.00
50380;BME280;37474;59.468;18.040;2024-02-26T05:28:01;100803.94;;;-0.65;100.00
50380;BME280;37474;59.468;18.040;2024-02-26T05:30:31;100815.75;;;-0.50;100.00
50380;BME280;37474;59.468;18.040;2024-02-26T05:32:59;100816.63;;;-0.50;100.00
50380;BME280;37474;59.468;18.040;2024-02-26T05:35:27;100817.44;;;-0.51;100.00
50380;BME280;37474;59.468;18.040;2024-02-26T05:37:55;100817.47;;;-0.57;100.00
50380;BME280;37474;59.468;18.040;2024-02-26T05:40:23;100819.22;;;-0.61;100.00
50380;BME280;37474;59.468;18.040;2024-02-26T05:42:51;100811.56;;;-0.62;100.00
50380;BME280;37474;59.468;18.040;2024-02-26T05:45:19;100823.44;;;-0.58;100.00
50380;BME280;37474;59.468;18.040;2024-02-26T05:47:50;100826.91;;;-0.71;100.00
50380;BME280;37474;59.468;18.040;2024-02-26T05:50:22;100830.28;;;-0.69;100.00
50380;BME280;37474;59.468;18.040;2024-02-26T05:52:51;100832.72;;;-0.48;100.00
50380;BME280;37474;59.468;18.040;2024-02-26T05:55:19;100831.88;;;-0.47;100.00
50380;BME280;37474;59.468;18.040;2024-02-26T05:57:47;100828.47;;;-0.47;100.00
50380;BME280;37474;59.468;18.040;2024-02-26T06:00:16;100818.34;;;-0.60;100.00
50380;BME280;37474;59.468;18.040;2024-02-26T06:02:45;100820.00;;;-0.56;100.00
50380;BME280;37474;59.468;18.040;2024-02-26T06:05:15;100833.63;;;-0.58;100.00
50380;BME280;37474;59.468;18.040;2024-02-26T06:07:43;100826.91;;;-0.71;100.00
50380;BME280;37474;59.468;18.040;2024-02-26T06:10:11;100834.50;;;-0.68;100.00
50380;BME280;37474;59.468;18.040;2024-02-26T06:12:40;100819.28;;;-0.77;100.00
50380;BME280;37474;59.468;18.040;2024-02-26T06:15:09;100826.91;;;-0.76;100.00
50380;BME280;37474;59.468;18.040;2024-02-26T06:17:38;100822.63;;;-0.66;100.00
50380;BME280;37474;59.468;18.040;2024-02-26T06:20:07;100819.28;;;-0.84;100.00
50380;BME280;37474;59.468;18.040;2024-02-26T06:22:41;100821.81;;;-0.79;100.00
50380;BME280;37474;59.468;18.040;2024-02-26T06:25:09;100827.72;;;-0.66;100.00
50380;BME280;37474;59.468;18.040;2024-02-26T06:27:37;100826.00;;;-0.67;100.00
50380;BME280;37474;59.468;18.040;2024-02-26T06:30:06;100828.56;;;-0.67;100.00
50380;BME280;37474;59.468;18.040;2024-02-26T06:32:35;100828.59;;;-0.78;100.00
50380;BME280;37474;59.468;18.040;2024-02-26T06:35:04;100820.16;;;-0.91;100.00
50380;BME280;37474;59.468;18.040;2024-02-26T06:37:34;100825.25;;;-0.92;100.00
50380;BME280;37474;59.468;18.040;2024-02-26T06:40:07;100838.81;;;-0.81;100.00
50380;BME280;37474;59.468;18.040;2024-02-26T06:42:36;100837.91;;;-0.74;100.00
50380;BME280;37474;59.468;18.040;2024-02-26T06:45:05;100833.69;;;-0.70;100.00
50380;BME280;37474;59.468;18.040;2024-02-26T06:47:34;100829.44;;;-0.76;100.00
50380;BME280;37474;59.468;18.040;2024-02-26T06:50:03;100837.00;;;-0.58;100.00
50380;BME280;37474;59.468;18.040;2024-02-26T06:52:31;100837.78;;;-0.39;100.00
50380;BME280;37474;59.468;18.040;2024-02-26T06:54:59;100842.84;;;-0.33;100.00
50380;BME280;37474;59.468;18.040;2024-02-26T06:57:29;100841.13;;;-0.26;100.00
50380;BME280;37474;59.468;18.040;2024-02-26T06:59:57;100840.25;;;-0.22;100.00
50380;BME280;37474;59.468;18.040;2024-02-26T07:02:26;100852.13;;;-0.16;100.00
50380;BME280;37474;59.468;18.040;2024-02-26T07:04:54;100852.13;;;-0.16;100.00
50380;BME280;37474;59.468;18.040;2024-02-26T07:07:24;100866.53;;;-0.11;100.00
50380;BME280;37474;59.468;18.040;2024-02-26T07:09:53;100863.94;;;-0.09;100.00
50380;BME280;37474;59.468;18.040;2024-02-26T07:12:21;100865.66;;;-0.10;100.00
50380;BME280;37474;59.468;18.040;2024-02-26T07:14:50;100861.44;;;-0.17;100.00
50380;BME280;37474;59.468;18.040;2024-02-26T07:17:19;100862.28;;;-0.13;100.00
50380;BME280;37474;59.468;18.040;2024-02-26T07:19:47;100873.25;;;-0.04;100.00
50380;BME280;37474;59.468;18.040;2024-02-26T07:22:15;100872.44;;;-0.09;100.00
50380;BME280;37474;59.468;18.040;2024-02-26T07:24:43;100864.81;;;-0.09;100.00
50380;BME280;37474;59.468;18.040;2024-02-26T07:27:11;100870.75;;;-0.11;100.00
50380;BME280;37474;59.468;18.040;2024-02-26T07:29:39;100873.28;;;-0.08;100.00
50380;BME280;37474;59.468;18.040;2024-02-26T07:32:09;100874.13;;;-0.08;100.00
50380;BME280;37474;59.468;18.040;2024-02-26T07:34:37;100875.00;;;-0.09;100.00
50380;BME280;37474;59.468;18.040;2024-02-26T07:37:08;100879.22;;;-0.06;100.00
50380;BME280;37474;59.468;18.040;2024-02-26T07:39:38;100879.19;;;0.02;100.00
50380;BME280;37474;59.468;18.040;2024-02-26T07:42:06;100890.19;;;0.11;100.00
50380;BME280;37474;59.468;18.040;2024-02-26T07:44:34;100883.28;;;0.25;100.00
50380;BME280;37474;59.468;18.040;2024-02-26T07:47:02;100886.59;;;0.37;100.00
50380;BME280;37474;59.468;18.040;2024-02-26T07:49:32;100887.28;;;0.59;100.00
50380;BME280;37474;59.468;18.040;2024-02-26T07:52:04;100888.91;;;0.69;100.00
50380;BME280;37474;59.468;18.040;2024-02-26T07:54:33;100882.81;;;0.82;100.00
50380;BME280;37474;59.468;18.040;2024-02-26T07:57:01;100891.25;;;0.95;100.00
50380;BME280;37474;59.468;18.040;2024-02-26T07:59:32;100894.59;;;0.97;100.00
50380;BME280;37474;59.468;18.040;2024-02-26T08:02:00;100888.53;;;1.12;100.00
50380;BME280;37474;59.468;18.040;2024-02-26T08:04:30;100890.03;;;1.26;100.00
50380;BME280;37474;59.468;18.040;2024-02-26T08:06:59;100899.25;;;1.41;100.00
50380;BME280;37474;59.468;18.040;2024-02-26T08:09:27;100900.81;;;1.56;100.00
50380;BME280;37474;59.468;18.040;2024-02-26T08:11:55;100902.31;;;1.72;100.00
50380;BME280;37474;59.468;18.040;2024-02-26T08:14:23;100900.53;;;1.77;100.00
50380;BME280;37474;59.468;18.040;2024-02-26T08:16:51;100905.50;;;1.88;100.00
50380;BME280;37474;59.468;18.040;2024-02-26T08:19:21;100897.03;;;1.84;100.00
50380;BME280;37474;59.468;18.040;2024-02-26T08:21:49;100915.66;;;1.96;100.00
50380;BME280;37474;59.468;18.040;2024-02-26T08:24:19;100919.00;;;1.99;100.00
50380;BME280;37474;59.468;18.040;2024-02-26T08:26:47;100918.78;;;2.15;100.00
50380;BME280;37474;59.468;18.040;2024-02-26T08:29:15;100923.97;;;2.10;100.00
50380;BME280;37474;59.468;18.040;2024-02-26T08:31:43;100931.44;;;2.25;100.00
50380;BME280;37474;59.468;18.040;2024-02-26T08:34:11;100923.72;;;2.28;100.00
50380;BME280;37474;59.468;18.040;2024-02-26T08:36:39;100935.75;;;2.20;100.00
50380;BME280;37474;59.468;18.040;2024-02-26T08:39:07;100934.94;;;2.18;100.00
50380;BME280;37474;59.468;18.040;2024-02-26T08:41:37;100940.94;;;2.17;100.00
50380;BME280;37474;59.468;18.040;2024-02-26T08:44:05;100951.09;;;2.23;100.00
50380;BME280;37474;59.468;18.040;2024-02-26T08:46:33;100940.75;;;2.29;100.00
50380;BME280;37474;59.468;18.040;2024-02-26T08:49:01;100943.19;;;2.37;100.00
50380;BME280;37474;59.468;18.040;2024-02-26T08:51:29;100943.94;;;2.45;100.00
50380;BME280;37474;59.468;18.040;2024-02-26T08:53:58;100948.91;;;2.56;100.00
50380;BME280;37474;59.468;18.040;2024-02-26T08:56:26;100943.69;;;2.62;100.00
50380;BME280;37474;59.468;18.040;2024-02-26T08:58:55;100955.31;;;2.81;100.00
50380;BME280;37474;59.468;18.040;2024-02-26T09:01:24;100938.84;;;2.98;100.00
50380;BME280;37474;59.468;18.040;2024-02-26T09:03:52;100937.09;;;3.01;100.00
50380;BME280;37474;59.468;18.040;2024-02-26T09:06:20;100939.66;;;3.01;100.00
50380;BME280;37474;59.468;18.040;2024-02-26T09:08:48;100946.09;;;3.24;100.00
50380;BME280;37474;59.468;18.040;2024-02-26T09:11:16;100941.44;;;3.44;100.00
50380;BME280;37474;59.468;18.040;2024-02-26T09:13:44;100937.59;;;3.20;100.00
50380;BME280;37474;59.468;18.040;2024-02-26T09:16:13;100943.56;;;3.21;100.00
50380;BME280;37474;59.468;18.040;2024-02-26T09:18:42;100951.06;;;3.31;100.00
50380;BME280;37474;59.468;18.040;2024-02-26T09:21:10;100947.81;;;3.23;100.00
50380;BME280;37474;59.468;18.040;2024-02-26T09:23:38;100949.53;;;3.21;100.00
50380;BME280;37474;59.468;18.040;2024-02-26T09:26:09;100968.25;;;3.26;100.00
50380;BME280;37474;59.468;18.040;2024-02-26T09:28:37;100959.88;;;3.15;100.00
50380;BME280;37474;59.468;18.040;2024-02-26T09:31:05;100951.63;;;3.01;100.00
50380;BME280;37474;59.468;18.040;2024-02-26T09:33:35;100969.38;;;3.11;100.00
50380;BME280;37474;59.468;18.040;2024-02-26T09:36:04;100974.38;;;3.17;100.00
50380;BME280;37474;59.468;18.040;2024-02-26T09:38:33;100958.25;;;3.12;100.00
50380;BME280;37474;59.468;18.040;2024-02-26T09:41:18;100965.75;;;3.22;100.00
50380;BME280;37474;59.468;18.040;2024-02-26T09:43:48;100970.00;;;3.24;100.00
50380;BME280;37474;59.468;18.040;2024-02-26T09:46:18;100970.75;;;3.29;100.00
50380;BME280;37474;59.468;18.040;2024-02-26T09:48:48;100967.25;;;3.35;100.00
50380;BME280;37474;59.468;18.040;2024-02-26T09:51:17;100966.56;;;3.25;100.00
50380;BME280;37474;59.468;18.040;2024-02-26T09:53:46;100959.75;;;3.24;100.00
50380;BME280;37474;59.468;18.040;2024-02-26T09:56:16;100958.16;;;3.17;100.00
50380;BME280;37474;59.468;18.040;2024-02-26T09:58:44;100962.31;;;3.24;100.00
50380;BME280;37474;59.468;18.040;2024-02-26T10:01:17;100959.75;;;3.24;100.00
50380;BME280;37474;59.468;18.040;2024-02-26T10:03:51;100962.16;;;3.33;100.00
50380;BME280;37474;59.468;18.040;2024-02-26T10:06:20;100963.66;;;3.45;100.00
50380;BME280;37474;59.468;18.040;2024-02-26T10:08:49;100959.41;;;3.42;100.00
50380;BME280;37474;59.468;18.040;2024-02-26T10:11:18;100950.69;;;3.53;100.00
50380;BME280;37474;59.468;18.040;2024-02-26T10:13:46;100961.44;;;3.70;100.00
50380;BME280;37474;59.468;18.040;2024-02-26T10:16:14;100961.41;;;3.73;100.00
50380;BME280;37474;59.468;18.040;2024-02-26T10:18:46;100960.34;;;3.83;100.00
50380;BME280;37474;59.468;18.040;2024-02-26T10:21:20;100959.56;;;3.80;100.00
50380;BME280;37474;59.468;18.040;2024-02-26T10:23:50;100958.72;;;3.79;100.00
50380;BME280;37474;59.468;18.040;2024-02-26T10:26:19;100957.19;;;3.69;100.00
50380;BME280;37474;59.468;18.040;2024-02-26T10:28:49;100961.41;;;3.71;100.00
50380;BME280;37474;59.468;18.040;2024-02-26T10:31:21;100948.75;;;3.64;100.00
50380;BME280;37474;59.468;18.040;2024-02-26T10:33:49;100959.00;;;3.64;100.00
50380;BME280;37474;59.468;18.040;2024-02-26T10:36:20;100960.06;;;3.54;100.00
50380;BME280;37474;59.468;18.040;2024-02-26T10:38:48;100957.59;;;3.48;100.00
50380;BME280;37474;59.468;18.040;2024-02-26T10:41:19;100959.25;;;3.52;100.00
50380;BME280;37474;59.468;18.040;2024-02-26T10:43:47;100969.72;;;3.38;100.00
50380;BME280;37474;59.468;18.040;2024-02-26T10:46:15;100962.44;;;3.15;100.00
50380;BME280;37474;59.468;18.040;2024-02-26T10:48:49;100972.53;;;3.26;100.00
50380;BME280;37474;59.468;18.040;2024-02-26T10:51:21;100969.84;;;3.33;100.00
50380;BME280;37474;59.468;18.040;2024-02-26T10:53:55;100972.19;;;3.44;100.00
50380;BME280;37474;59.468;18.040;2024-02-26T10:56:28;100963.25;;;3.65;100.00
50380;BME280;37474;59.468;18.040;2024-02-26T10:58:57;100963.00;;;3.79;100.00
50380;BME280;37474;59.468;18.040;2024-02-26T11:01:27;100961.19;;;3.82;100.00
50380;BME280;37474;59.468;18.040;2024-02-26T11:03:56;100967.97;;;3.86;100.00
50380;BME280;37474;59.468;18.040;2024-02-26T11:06:27;100971.28;;;3.91;100.00
50380;BME280;37474;59.468;18.040;2024-02-26T11:08:58;100959.22;;;3.96;100.00
50380;BME280;37474;59.468;18.040;2024-02-26T11:11:27;100962.38;;;4.09;100.00
50380;BME280;37474;59.468;18.040;2024-02-26T11:13:57;100959.53;;;4.23;100.00
50380;BME280;37474;59.468;18.040;2024-02-26T11:16:25;100962.38;;;4.09;100.00
50380;BME280;37474;59.468;18.040;2024-02-26T11:18:55;100949.31;;;4.20;100.00
50380;BME280;37474;59.468;18.040;2024-02-26T11:21:23;100962.69;;;4.34;100.00
50380;BME280;37474;59.468;18.040;2024-02-26T11:23:58;100954.06;;;4.37;100.00
50380;BME280;37474;59.468;18.040;2024-02-26T11:26:26;100962.97;;;4.59;100.00
50380;BME280;37474;59.468;18.040;2024-02-26T11:28:55;100965.84;;;4.83;100.00
50380;BME280;37474;59.468;18.040;2024-02-26T11:31:24;100963.09;;;4.90;100.00
50380;BME280;37474;59.468;18.040;2024-02-26T11:33:54;100960.91;;;5.09;100.00
50380;BME280;37474;59.468;18.040;2024-02-26T11:36:24;100956.63;;;5.10;100.00
50380;BME280;37474;59.468;18.040;2024-02-26T11:38:53;100959.88;;;5.16;100.00
50380;BME280;37474;59.468;18.040;2024-02-26T11:41:24;100964.91;;;5.21;100.00
50380;BME280;37474;59.468;18.040;2024-02-26T11:43:53;100966.72;;;5.17;100.00
50380;BME280;37474;59.468;18.040;2024-02-26T11:46:25;100964.56;;;5.00;100.00
50380;BME280;37474;59.468;18.040;2024-02-26T11:48:56;100952.03;;;4.87;100.00
50380;BME280;37474;59.468;18.040;2024-02-26T11:51:27;100961.91;;;5.03;100.00
50380;BME280;37474;59.468;18.040;2024-02-26T11:53:56;100963.47;;;5.09;100.00
50380;BME280;37474;59.468;18.040;2024-02-26T11:56:27;100949.69;;;5.13;100.00
50380;BME280;37474;59.468;18.040;2024-02-26T11:59:00;100963.88;;;5.28;100.00
50380;BME280;37474;59.468;18.040;2024-02-26T12:01:43;100972.44;;;5.27;100.00
50380;BME280;37474;59.468;18.040;2024-02-26T12:04:13;100968.25;;;5.24;100.00
50380;BME280;37474;59.468;18.040;2024-02-26T12:06:45;100972.84;;;5.12;100.00
50380;BME280;37474;59.468;18.040;2024-02-26T12:09:12;100977.47;;;4.97;100.00
50380;BME280;37474;59.468;18.040;2024-02-26T12:11:42;100971.03;;;4.81;100.00
50380;BME280;37474;59.468;18.040;2024-02-26T12:14:11;100967.75;;;4.74;100.00
50380;BME280;37474;59.468;18.040;2024-02-26T12:16:40;100966.00;;;4.76;100.00
50380;BME280;37474;59.468;18.040;2024-02-26T12:19:09;100967.69;;;4.78;100.00
50380;BME280;37474;59.468;18.040;2024-02-26T12:21:38;100967.06;;;4.68;100.00
50380;BME280;37474;59.468;18.040;2024-02-26T12:24:13;100955.13;;;4.65;100.00
50380;BME280;37474;59.468;18.040;2024-02-26T12:26:44;100973.59;;;4.81;100.00
50380;BME280;37474;59.468;18.040;2024-02-26T12:29:12;100970.38;;;4.73;100.00
50380;BME280;37474;59.468;18.040;2024-02-26T12:31:41;100979.66;;;4.79;100.00
50380;BME280;37474;59.468;18.040;2024-02-26T12:34:10;100978.03;;;4.74;100.00
50380;BME280;37474;59.468;18.040;2024-02-26T12:36:38;100983.03;;;4.81;100.00
50380;BME280;37474;59.468;18.040;2024-02-26T12:39:07;100982.19;;;4.80;100.00
50380;BME280;37474;59.468;18.040;2024-02-26T12:41:38;100981.97;;;4.89;100.00